createdAt,value
2018-05-28T00:01:31.519Z,7.78
2018-05-28T00:03:59.039Z,7.83
2018-05-28T00:06:27.330Z,6.87
2018-05-28T00:08:55.069Z,8.03
2018-05-28T00:11:23.354Z,7.62
2018-05-28T00:13:51.701Z,8.00
2018-05-28T00:16:19.257Z,8.33
2018-05-28T00:18:47.673Z,7.63
2018-05-28T00:21:15.463Z,7.30
2018-05-28T00:23:43.353Z,7.37
2018-05-28T00:26:10.910Z,7.67
2018-05-28T00:28:38.455Z,7.32
2018-05-28T00:31:06.591Z,7.60
2018-05-28T00:33:34.103Z,8.07
2018-05-28T00:36:01.616Z,6.63
2018-05-28T00:38:29.159Z,7.70
2018-05-28T00:40:57.440Z,7.10
2018-05-28T00:43:24.959Z,8.50
2018-05-28T00:45:53.262Z,7.93
2018-05-28T00:48:20.788Z,8.17
2018-05-28T00:50:48.486Z,7.67
2018-05-28T00:53:16.808Z,7.80
2018-05-28T00:55:51.038Z,8.20
2018-05-28T00:58:18.595Z,7.10
2018-05-28T01:00:46.115Z,8.73
2018-05-28T01:03:15.407Z,7.93
2018-05-28T01:05:43.718Z,8.10
2018-05-28T01:08:11.227Z,7.67
2018-05-28T01:10:39.531Z,8.30
2018-05-28T01:13:07.131Z,8.40
2018-05-28T01:15:34.643Z,8.00
2018-05-28T01:18:02.998Z,7.67
2018-05-28T01:20:30.535Z,7.78
2018-05-28T01:22:58.046Z,7.77
2018-05-28T01:25:25.990Z,7.77
2018-05-28T01:27:54.323Z,7.90
2018-05-28T01:30:22.720Z,8.87
2018-05-28T01:32:50.226Z,9.07
2018-05-28T01:35:17.804Z,9.37
2018-05-28T01:37:45.329Z,8.82
2018-05-28T01:40:23.615Z,9.52
2018-05-28T01:47:23.103Z,8.17
2018-05-28T01:49:50.619Z,11.27
2018-05-28T01:52:18.138Z,7.47
2018-05-28T01:54:46.127Z,8.60
2018-05-28T01:57:15.363Z,10.47
2018-05-28T01:59:43.654Z,11.30
2018-05-28T02:02:11.207Z,10.27
2018-05-28T02:04:38.718Z,10.23
2018-05-28T02:07:06.243Z,9.43
2018-05-28T02:09:33.787Z,10.20
2018-05-28T02:12:01.312Z,10.20
2018-05-28T02:14:28.884Z,10.15
2018-05-28T02:16:56.459Z,9.97
2018-05-28T02:19:23.985Z,9.90
2018-05-28T02:21:51.498Z,9.13
2018-05-28T02:24:19.037Z,9.50
2018-05-28T02:26:46.791Z,9.17
2018-05-28T02:29:26.254Z,9.80
2018-05-28T02:33:54.095Z,9.43
2018-05-28T02:36:22.007Z,9.17
2018-05-28T02:38:49.548Z,9.00
2018-05-28T02:41:17.062Z,8.47
2018-05-28T02:43:45.378Z,8.97
2018-05-28T02:46:13.682Z,9.82
2018-05-28T02:48:41.202Z,9.00
2018-05-28T02:51:09.507Z,9.47
2018-05-28T02:53:37.034Z,10.73
2018-05-28T02:56:05.309Z,9.30
2018-05-28T02:58:33.926Z,8.63
2018-05-28T03:01:01.447Z,9.63
2018-05-28T03:03:29.732Z,10.50
2018-05-28T03:05:57.289Z,10.60
2018-05-28T03:08:25.576Z,9.75
2018-05-28T03:10:53.102Z,9.50
2018-05-28T03:13:20.647Z,9.43
2018-05-28T03:15:48.171Z,10.73
2018-05-28T03:18:16.406Z,9.60
2018-05-28T03:20:45.337Z,9.63
2018-05-28T03:23:14.558Z,9.18
2018-05-28T03:25:42.084Z,9.50
2018-05-28T03:28:09.791Z,9.63
2018-05-28T03:30:37.328Z,10.00
2018-05-28T03:33:04.859Z,10.90
2018-05-28T03:35:32.420Z,9.03
2018-05-28T03:37:59.946Z,9.10
2018-05-28T03:40:28.234Z,10.38
2018-05-28T03:42:57.155Z,9.10
2018-05-28T03:45:24.679Z,9.60
2018-05-28T03:47:52.195Z,9.87
2018-05-28T03:50:19.817Z,9.98
2018-05-28T03:52:47.385Z,10.70
2018-05-28T03:55:15.526Z,9.43
2018-05-28T03:57:43.866Z,9.27
2018-05-28T04:00:23.211Z,9.90
2018-05-28T04:03:03.043Z,10.13
2018-05-28T04:05:42.349Z,9.43
2018-05-28T04:08:09.903Z,10.00
2018-05-28T04:10:37.418Z,10.30
2018-05-28T04:13:04.948Z,9.17
2018-05-28T04:15:32.506Z,10.90
2018-05-28T04:18:00.028Z,10.60
2018-05-28T04:20:27.550Z,10.60
2018-05-28T04:22:55.798Z,10.20
2018-05-28T04:25:23.327Z,11.23
2018-05-28T04:27:50.858Z,11.50
2018-05-28T04:30:18.948Z,11.90
2018-05-28T04:32:46.478Z,10.80
2018-05-28T04:35:20.626Z,11.50
2018-05-28T04:37:48.155Z,10.00
2018-05-28T04:40:16.523Z,11.15
2018-05-28T04:42:44.362Z,11.30
2018-05-28T04:45:11.895Z,11.63
2018-05-28T04:47:39.420Z,12.75
2018-05-28T04:50:07.727Z,10.43
2018-05-28T04:52:35.258Z,10.00
2018-05-28T04:55:03.570Z,11.37
2018-05-28T04:57:31.110Z,10.02
2018-05-28T04:59:58.664Z,11.73
2018-05-28T05:02:26.203Z,11.77
2018-05-28T05:04:54.831Z,11.10
2018-05-28T05:07:22.351Z,10.53
2018-05-28T05:09:50.630Z,9.40
2018-05-28T05:12:18.943Z,10.17
2018-05-28T05:14:46.487Z,10.07
2018-05-28T05:17:16.303Z,9.73
2018-05-28T05:19:43.858Z,8.83
2018-05-28T05:22:11.413Z,8.20
2018-05-28T05:24:38.935Z,7.50
2018-05-28T05:27:06.522Z,9.43
2018-05-28T05:29:34.846Z,8.07
2018-05-28T05:32:02.491Z,7.67
2018-05-28T05:34:30.050Z,8.32
2018-05-28T05:36:57.587Z,8.33
2018-05-28T05:39:25.112Z,8.20
2018-05-28T05:41:52.667Z,7.95
2018-05-28T05:44:20.191Z,7.05
2018-05-28T05:46:47.714Z,6.83
2018-05-28T05:49:17.094Z,7.00
2018-05-28T05:51:45.383Z,6.97
2018-05-28T05:54:23.598Z,7.12
2018-05-28T06:00:44.065Z,6.87
2018-05-28T06:03:11.596Z,6.00
2018-05-28T06:05:39.130Z,6.10
2018-05-28T06:08:07.758Z,5.40
2018-05-28T06:10:35.291Z,6.10
2018-05-28T06:13:02.831Z,4.93
2018-05-28T06:15:31.197Z,4.97
2018-05-28T06:17:59.487Z,5.30
2018-05-28T06:20:27.904Z,8.57
2018-05-28T06:22:56.111Z,5.33
2018-05-28T06:25:23.631Z,5.43
2018-05-28T06:27:51.166Z,6.00
2018-05-28T06:30:19.106Z,4.70
2018-05-28T06:32:46.971Z,4.90
2018-05-28T06:35:16.284Z,5.80
2018-05-28T06:37:44.607Z,4.97
2018-05-28T06:40:12.149Z,4.73
2018-05-28T06:42:39.815Z,4.70
2018-05-28T06:45:07.359Z,5.03
2018-05-28T06:47:36.187Z,5.00
2018-05-28T06:50:03.726Z,4.57
2018-05-28T06:52:31.294Z,4.40
2018-05-28T06:54:58.818Z,5.13
2018-05-28T06:57:26.535Z,4.17
2018-05-28T06:59:54.087Z,4.37
2018-05-28T07:02:21.622Z,4.27
2018-05-28T07:04:49.151Z,4.50
2018-05-28T07:07:16.719Z,4.07
2018-05-28T07:09:44.256Z,4.00
2018-05-28T07:12:12.581Z,4.10
2018-05-28T07:14:40.513Z,3.70
2018-05-28T07:17:08.791Z,4.27
2018-05-28T07:19:39.522Z,3.77
2018-05-28T07:22:07.490Z,3.83
2018-05-28T07:24:35.029Z,4.27
2018-05-28T07:27:02.555Z,4.97
2018-05-28T07:29:30.163Z,5.05
2018-05-28T07:31:57.646Z,4.23
2018-05-28T07:34:26.295Z,4.40
2018-05-28T07:36:54.630Z,4.20
2018-05-28T07:39:22.156Z,4.90
2018-05-28T07:41:49.686Z,5.10
2018-05-28T07:44:17.235Z,4.20
2018-05-28T07:46:44.773Z,4.30
2018-05-28T07:49:12.282Z,3.57
2018-05-28T07:51:39.823Z,3.80
2018-05-28T07:54:08.214Z,4.30
2018-05-28T07:56:37.034Z,3.80
2018-05-28T07:59:05.451Z,4.20
2018-05-28T08:01:32.982Z,3.30
2018-05-28T08:04:01.007Z,4.17
2018-05-28T08:06:28.728Z,4.03
2018-05-28T08:08:56.255Z,3.80
2018-05-28T08:11:23.769Z,3.80
2018-05-28T08:13:52.192Z,3.90
2018-05-28T08:16:19.727Z,3.50
2018-05-28T08:18:48.026Z,4.13
2018-05-28T08:21:16.740Z,3.42
2018-05-28T08:23:44.284Z,3.23
2018-05-28T08:26:11.835Z,3.30
2018-05-28T08:28:39.480Z,2.97
2018-05-28T08:31:06.935Z,2.80
2018-05-28T08:33:34.461Z,2.93
2018-05-28T08:36:03.084Z,3.17
2018-05-28T08:38:30.747Z,2.87
2018-05-28T08:40:58.263Z,2.70
2018-05-28T08:43:27.238Z,3.17
2018-05-28T08:45:55.629Z,2.97
2018-05-28T08:48:23.254Z,3.13
2018-05-28T08:50:50.824Z,2.90
2018-05-28T08:53:18.345Z,2.70
2018-05-28T08:55:45.981Z,3.07
2018-05-28T08:58:15.634Z,3.10
2018-05-28T09:00:43.198Z,2.70
2018-05-28T09:03:10.745Z,2.70
2018-05-28T09:05:38.801Z,3.00
2018-05-28T09:08:06.327Z,3.10
2018-05-28T09:10:33.842Z,3.43
2018-05-28T09:13:01.399Z,3.27
2018-05-28T09:15:28.914Z,3.40
2018-05-28T09:17:57.212Z,3.10
2018-05-28T09:20:24.771Z,3.60
2018-05-28T09:22:52.310Z,3.70
2018-05-28T09:25:20.731Z,3.10
2018-05-28T09:27:48.611Z,3.27
2018-05-28T09:30:17.162Z,2.80
2018-05-28T09:32:44.692Z,2.90
2018-05-28T09:35:13.963Z,3.67
2018-05-28T09:37:41.614Z,3.27
2018-05-28T09:40:09.127Z,2.90
2018-05-28T09:42:36.691Z,2.50
2018-05-28T09:45:04.211Z,2.80
2018-05-28T09:47:31.731Z,2.90
2018-05-28T09:49:59.716Z,2.43
2018-05-28T09:52:27.229Z,3.08
2018-05-28T09:54:55.524Z,2.83
2018-05-28T09:57:23.170Z,3.07
2018-05-28T09:59:50.704Z,2.90
2018-05-28T10:02:18.276Z,3.60
2018-05-28T10:04:45.803Z,3.30
2018-05-28T10:07:14.544Z,3.28
2018-05-28T10:09:42.440Z,3.40
2018-05-28T10:12:10.041Z,3.43
2018-05-28T10:14:38.350Z,3.67
2018-05-28T10:17:05.892Z,3.30
2018-05-28T10:19:33.459Z,4.37
2018-05-28T10:22:01.047Z,4.20
2018-05-28T10:24:29.299Z,3.80
2018-05-28T10:26:56.876Z,4.10
2018-05-28T10:29:24.401Z,4.63
2018-05-28T10:31:52.682Z,3.93
2018-05-28T10:34:20.696Z,4.37
2018-05-28T10:36:48.238Z,4.50
2018-05-28T10:39:16.982Z,4.60
2018-05-28T10:41:44.615Z,4.20
2018-05-28T10:44:13.769Z,4.60
2018-05-28T10:46:41.300Z,4.17
2018-05-28T10:49:09.618Z,3.77
2018-05-28T10:51:37.132Z,3.90
2018-05-28T10:54:05.435Z,4.67
2018-05-28T10:56:33.723Z,5.20
2018-05-28T10:59:01.274Z,4.40
2018-05-28T11:01:28.807Z,4.62
2018-05-28T11:03:57.136Z,4.50
2018-05-28T11:06:24.685Z,5.23
2018-05-28T11:08:53.363Z,5.20
2018-05-28T11:11:20.923Z,4.87
2018-05-28T11:13:48.453Z,4.80
2018-05-28T11:16:17.225Z,5.13
2018-05-28T11:18:45.959Z,4.70
2018-05-28T11:21:24.675Z,5.12
2018-05-28T11:26:21.105Z,4.60
2018-05-28T11:28:48.622Z,4.80
2018-05-28T11:31:16.479Z,5.50
2018-05-28T11:33:44.025Z,4.63
2018-05-28T11:36:11.547Z,4.70
2018-05-28T11:38:39.068Z,4.87
2018-05-28T11:41:07.739Z,5.33
2018-05-28T11:43:35.254Z,4.83
2018-05-28T11:46:02.768Z,3.43
2018-05-28T11:48:30.666Z,3.77
2018-05-28T11:50:58.198Z,3.93
2018-05-28T11:53:25.719Z,3.70
2018-05-28T11:55:53.431Z,4.03
2018-05-28T11:58:20.954Z,4.10
2018-05-28T12:00:48.471Z,4.07
2018-05-28T12:03:17.070Z,4.13
2018-05-28T12:05:44.603Z,4.13
2018-05-28T12:08:13.827Z,4.87
2018-05-28T12:10:41.370Z,4.60
2018-05-28T12:13:08.891Z,4.80
2018-05-28T12:15:36.418Z,3.50
2018-05-28T12:18:04.727Z,3.70
2018-05-28T12:20:32.247Z,3.65
2018-05-28T12:22:59.782Z,3.87
2018-05-28T12:25:27.671Z,4.67
2018-05-28T12:27:55.241Z,4.10
2018-05-28T12:30:22.758Z,4.60
2018-05-28T12:32:50.323Z,3.90
2018-05-28T12:35:17.844Z,3.70
2018-05-28T12:37:45.360Z,3.57
2018-05-28T12:40:25.697Z,3.60
2018-05-28T12:46:58.766Z,3.47
2018-05-28T12:49:26.291Z,3.80
2018-05-28T12:51:53.814Z,4.07
2018-05-28T12:54:21.385Z,3.93
2018-05-28T12:56:49.416Z,4.00
2018-05-28T12:59:16.945Z,3.53
2018-05-28T13:01:44.536Z,3.17
2018-05-28T13:04:12.063Z,3.90
2018-05-28T13:06:39.586Z,3.70
2018-05-28T13:09:07.486Z,3.43
2018-05-28T13:11:35.028Z,3.67
2018-05-28T13:14:02.542Z,3.57
2018-05-28T13:16:30.099Z,3.30
2018-05-28T13:18:57.616Z,3.60
2018-05-28T13:21:25.175Z,3.95
2018-05-28T13:23:52.728Z,4.10
2018-05-28T13:26:20.242Z,3.90
2018-05-28T13:28:48.531Z,2.90
2018-05-28T13:31:16.461Z,2.63
2018-05-28T13:33:43.975Z,3.33
2018-05-28T13:36:11.537Z,3.05
2018-05-28T13:38:39.097Z,3.33
2018-05-28T13:41:06.615Z,2.93
2018-05-28T13:43:34.140Z,3.23
2018-05-28T13:46:01.679Z,3.20
2018-05-28T13:48:30.251Z,2.90
2018-05-28T13:50:57.767Z,3.03
2018-05-28T13:53:25.348Z,4.00
2018-05-28T13:55:53.692Z,4.03
2018-05-28T13:58:21.215Z,3.13
2018-05-28T14:00:49.130Z,3.43
2018-05-28T14:03:16.656Z,3.67
2018-05-28T14:05:44.193Z,3.77
2018-05-28T14:08:11.762Z,3.20
2018-05-28T14:10:39.280Z,2.97
2018-05-28T14:13:07.579Z,3.73
2018-05-28T14:15:35.613Z,3.40
2018-05-28T14:18:03.128Z,3.57
2018-05-28T14:20:31.421Z,2.90
2018-05-28T14:22:59.739Z,2.87
2018-05-28T14:25:28.039Z,3.60
2018-05-28T14:27:55.610Z,3.23
2018-05-28T14:30:23.167Z,3.50
2018-05-28T14:32:50.729Z,3.47
2018-05-28T14:35:18.256Z,3.20
2018-05-28T14:37:46.627Z,3.10
2018-05-28T14:40:15.527Z,2.78
2018-05-28T14:42:43.834Z,2.90
2018-05-28T14:45:11.391Z,3.03
2018-05-28T14:47:38.918Z,3.37
2018-05-28T14:50:07.486Z,3.62
2018-05-28T14:52:35.044Z,3.47
2018-05-28T14:55:02.561Z,3.37
2018-05-28T14:57:30.121Z,3.83
2018-05-28T14:59:58.243Z,3.50
2018-05-28T15:02:26.542Z,3.20
2018-05-28T15:04:54.074Z,3.83
2018-05-28T15:07:21.676Z,3.33
2018-05-28T15:09:49.190Z,3.63
2018-05-28T15:12:17.594Z,3.50
2018-05-28T15:14:45.150Z,3.07
2018-05-28T15:17:13.606Z,3.23
2018-05-28T15:19:41.124Z,4.30
2018-05-28T15:22:08.762Z,3.50
2018-05-28T15:24:36.286Z,4.40
2018-05-28T15:27:04.607Z,4.10
2018-05-28T15:29:32.179Z,4.33
2018-05-28T15:32:00.455Z,4.37
2018-05-28T15:34:27.971Z,4.57
2018-05-28T15:36:56.284Z,5.03
2018-05-28T15:39:23.886Z,5.30
2018-05-28T15:41:51.417Z,4.60
2018-05-28T15:44:19.016Z,5.20
2018-05-28T15:46:47.307Z,4.63
2018-05-28T15:49:15.479Z,4.18
2018-05-28T15:51:43.554Z,4.43
2018-05-28T15:54:11.106Z,4.53
2018-05-28T15:56:38.672Z,4.30
2018-05-28T15:59:06.210Z,4.30
2018-05-28T16:01:34.539Z,4.20
2018-05-28T16:04:02.151Z,4.57
2018-05-28T16:06:30.787Z,4.20
2018-05-28T16:08:58.543Z,4.27
2018-05-28T16:11:26.083Z,3.70
2018-05-28T16:13:53.671Z,3.70
2018-05-28T16:16:21.195Z,4.05
2018-05-28T16:18:48.730Z,4.00
2018-05-28T16:21:16.502Z,4.00
2018-05-28T16:23:44.793Z,4.07
2018-05-28T16:26:12.399Z,4.37
2018-05-28T16:28:40.463Z,5.13
2018-05-28T16:31:08.117Z,4.40
2018-05-28T16:33:35.652Z,4.37
2018-05-28T16:36:03.257Z,4.00
2018-05-28T16:38:30.781Z,4.47
2018-05-28T16:40:58.308Z,4.77
2018-05-28T16:43:25.864Z,5.40
2018-05-28T16:45:54.179Z,3.93
2018-05-28T16:48:21.716Z,4.07
2018-05-28T16:50:49.894Z,4.17
2018-05-28T16:53:17.998Z,4.53
2018-05-28T16:55:46.467Z,4.30
2018-05-28T16:58:15.494Z,4.00
2018-05-28T17:00:43.065Z,4.20
2018-05-28T17:03:10.571Z,3.83
2018-05-28T17:05:38.146Z,4.50
2018-05-28T17:08:06.548Z,4.07
2018-05-28T17:10:34.075Z,4.83
2018-05-28T17:13:02.138Z,4.03
2018-05-28T17:15:29.719Z,4.23
2018-05-28T17:17:57.239Z,5.93
2018-05-28T17:20:24.797Z,4.57
2018-05-28T17:22:52.310Z,3.93
2018-05-28T17:25:19.914Z,4.50
2018-05-28T17:27:47.470Z,4.60
2018-05-28T17:30:16.454Z,4.30
2018-05-28T17:32:44.787Z,4.20
2018-05-28T17:35:12.739Z,3.90
2018-05-28T17:37:40.270Z,4.87
2018-05-28T17:40:07.820Z,4.33
2018-05-28T17:42:35.371Z,4.27
2018-05-28T17:45:03.751Z,4.70
2018-05-28T17:47:31.297Z,4.03
2018-05-28T17:49:58.858Z,5.07
2018-05-28T17:52:26.397Z,4.77
2018-05-28T17:54:55.000Z,4.53
2018-05-28T17:57:22.605Z,4.60
2018-05-28T17:59:50.129Z,4.80
2018-05-28T18:02:17.658Z,5.00
2018-05-28T18:04:45.236Z,5.20
2018-05-28T18:07:14.547Z,4.63
2018-05-28T18:09:42.164Z,4.87
2018-05-28T18:12:09.725Z,4.90
2018-05-28T18:14:37.269Z,5.20
2018-05-28T18:17:04.832Z,5.13
2018-05-28T18:19:32.903Z,5.07
2018-05-28T18:22:00.552Z,4.60
2018-05-28T18:24:28.087Z,5.60
2018-05-28T18:26:55.639Z,5.37
2018-05-28T18:29:23.928Z,5.07
2018-05-28T18:31:51.448Z,4.95
2018-05-28T18:34:18.996Z,4.80
2018-05-28T18:36:46.540Z,5.40
2018-05-28T18:39:25.968Z,4.65
2018-05-28T18:45:04.878Z,4.40
2018-05-28T18:47:32.447Z,5.17
2018-05-28T18:49:59.974Z,4.50
2018-05-28T18:52:28.636Z,5.10
2018-05-28T18:54:56.962Z,5.53
2018-05-28T18:57:24.495Z,5.80
2018-05-28T18:59:53.457Z,5.60
2018-05-28T19:02:20.991Z,4.67
2018-05-28T19:04:48.512Z,5.70
2018-05-28T19:07:16.459Z,4.80
2018-05-28T19:09:43.991Z,5.70
2018-05-28T19:12:12.288Z,4.97
2018-05-28T19:14:39.883Z,4.70
2018-05-28T19:17:07.414Z,4.77
2018-05-28T19:19:34.942Z,5.00
2018-05-28T19:22:02.542Z,5.00
2018-05-28T19:24:30.868Z,4.70
2018-05-28T19:26:58.378Z,5.00
2018-05-28T19:29:26.721Z,4.47
2018-05-28T19:31:54.262Z,4.67
2018-05-28T19:34:22.502Z,4.47
2018-05-28T19:36:50.065Z,4.30
2018-05-28T19:39:18.363Z,4.07
2018-05-28T19:41:45.903Z,3.80
2018-05-28T19:44:15.476Z,3.67
2018-05-28T19:46:43.971Z,3.83
2018-05-28T19:49:11.545Z,4.23
2018-05-28T19:51:39.127Z,3.60
2018-05-28T19:54:06.695Z,4.47
2018-05-28T19:56:35.045Z,3.77
2018-05-28T19:59:03.463Z,3.30
2018-05-28T20:01:31.446Z,3.60
2018-05-28T20:03:58.971Z,3.60
2018-05-28T20:06:26.563Z,3.80
2018-05-28T20:08:54.097Z,3.67
2018-05-28T20:11:21.699Z,4.37
2018-05-28T20:13:49.276Z,5.63
2018-05-28T20:16:17.644Z,5.07
2018-05-28T20:18:45.145Z,4.57
2018-05-28T20:21:14.393Z,4.20
2018-05-28T20:23:41.933Z,4.50
2018-05-28T20:26:09.856Z,4.50
2018-05-28T20:28:38.528Z,5.05
2018-05-28T20:31:06.839Z,4.43
2018-05-28T20:33:34.433Z,3.92
2018-05-28T20:36:02.008Z,4.50
2018-05-28T20:38:29.570Z,3.93
2018-05-28T20:40:57.124Z,3.60
2018-05-28T20:43:24.696Z,4.20
2018-05-28T20:45:52.259Z,3.90
2018-05-28T20:48:19.783Z,4.18
2018-05-28T20:50:47.832Z,5.13
2018-05-28T20:53:16.309Z,4.28
2018-05-28T20:55:43.849Z,4.57
2018-05-28T20:58:11.863Z,4.40
2018-05-28T21:00:39.391Z,5.07
2018-05-28T21:03:07.686Z,5.00
2018-05-28T21:05:35.293Z,5.17
2018-05-28T21:08:03.597Z,5.03
2018-05-28T21:10:31.126Z,4.83
2018-05-28T21:12:59.743Z,4.20
2018-05-28T21:15:27.262Z,4.40
2018-05-28T21:17:55.593Z,4.37
2018-05-28T21:20:23.137Z,4.15
2018-05-28T21:22:50.677Z,4.60
2018-05-28T21:25:18.302Z,4.93
2018-05-28T21:27:45.858Z,5.60
2018-05-28T21:30:25.707Z,6.18
2018-05-28T21:33:54.682Z,4.90
2018-05-28T21:36:22.225Z,6.73
2018-05-28T21:38:49.756Z,6.40
2018-05-28T21:41:18.133Z,4.87
2018-05-28T21:43:46.419Z,5.83
2018-05-28T21:46:15.644Z,6.05
2018-05-28T21:48:43.199Z,8.80
2018-05-28T21:51:10.736Z,10.50
2018-05-28T21:53:38.262Z,7.10
2018-05-28T21:56:06.191Z,10.37
2018-05-28T21:58:34.211Z,5.70
2018-05-28T22:01:02.507Z,8.97
2018-05-28T22:03:30.063Z,8.50
2018-05-28T22:05:57.603Z,6.87
2018-05-28T22:08:25.890Z,6.20
2018-05-28T22:10:54.200Z,7.93
2018-05-28T22:13:21.714Z,6.90
2018-05-28T22:15:49.236Z,6.30
2018-05-28T22:18:17.315Z,5.67
2018-05-28T22:20:44.837Z,5.63
2018-05-28T22:23:12.354Z,7.05
2018-05-28T22:25:39.898Z,5.97
2018-05-28T22:28:07.427Z,5.17
2018-05-28T22:30:34.940Z,4.60
2018-05-28T22:33:02.497Z,5.65
2018-05-28T22:35:30.775Z,5.03
2018-05-28T22:37:59.073Z,6.03
2018-05-28T22:40:26.693Z,6.10
2018-05-28T22:42:54.219Z,5.60
2018-05-28T22:45:21.734Z,5.20
2018-05-28T22:47:49.273Z,5.70
2018-05-28T22:50:16.799Z,5.30
2018-05-28T22:52:44.328Z,4.90
2018-05-28T22:55:11.875Z,5.60
2018-05-28T22:57:39.399Z,5.60
2018-05-28T23:00:07.148Z,5.30
2018-05-28T23:02:35.189Z,5.97
2018-05-28T23:05:02.701Z,5.70
2018-05-28T23:07:31.003Z,5.97
2018-05-28T23:09:58.546Z,6.80
2018-05-28T23:12:26.095Z,6.83
2018-05-28T23:14:53.612Z,7.13
2018-05-28T23:17:21.161Z,7.30
2018-05-28T23:19:48.684Z,7.20
2018-05-28T23:22:16.397Z,6.23
2018-05-28T23:24:43.995Z,7.10
2018-05-28T23:27:12.289Z,7.35
2018-05-28T23:29:40.593Z,7.90
2018-05-28T23:32:08.158Z,7.50
2018-05-28T23:34:35.679Z,7.10
2018-05-28T23:37:03.992Z,7.70
2018-05-28T23:39:31.558Z,6.90
2018-05-28T23:41:59.092Z,6.97
2018-05-28T23:44:26.634Z,7.32
2018-05-28T23:46:54.805Z,7.63
2018-05-28T23:49:23.118Z,8.25
2018-05-28T23:51:50.646Z,7.67
2018-05-28T23:54:18.225Z,8.80
2018-05-28T23:56:45.739Z,7.87
2018-05-28T23:59:14.543Z,7.93
